createdAt,value
2022-08-26T00:01:55.993Z,21.60
2022-08-26T00:04:25.501Z,21.60
2022-08-26T00:06:54.319Z,21.60
2022-08-26T00:09:21.476Z,21.60
2022-08-26T00:11:48.506Z,21.50
2022-08-26T00:14:16.552Z,21.50
2022-08-26T00:16:48.027Z,21.50
2022-08-26T00:19:18.108Z,21.50
2022-08-26T00:21:46.266Z,21.50
2022-08-26T00:24:15.947Z,21.50
2022-08-26T00:26:42.985Z,21.40
2022-08-26T00:29:09.980Z,21.40
2022-08-26T00:31:37.987Z,21.40
2022-08-26T00:34:07.008Z,21.40
2022-08-26T00:36:36.715Z,21.40
2022-08-26T00:39:04.702Z,21.40
2022-08-26T00:41:34.354Z,21.40
2022-08-26T00:44:01.547Z,21.30
2022-08-26T00:46:36.848Z,21.30
2022-08-26T00:49:34.908Z,21.30
2022-08-26T00:52:05.243Z,21.30
2022-08-26T00:54:42.315Z,21.20
2022-08-26T00:57:16.406Z,21.20
2022-08-26T00:59:47.135Z,21.30
2022-08-26T01:02:20.832Z,21.20
2022-08-26T01:04:58.801Z,21.30
2022-08-26T01:07:30.034Z,21.30
2022-08-26T01:09:59.578Z,21.20
2022-08-26T01:12:31.830Z,21.20
2022-08-26T01:14:59.315Z,21.20
2022-08-26T01:17:26.257Z,21.20
2022-08-26T01:20:12.627Z,21.20
2022-08-26T01:22:59.415Z,21.20
2022-08-26T01:25:32.779Z,21.20
2022-08-26T01:28:05.374Z,21.20
2022-08-26T01:30:34.758Z,21.20
2022-08-26T01:33:05.044Z,21.20
2022-08-26T01:35:32.652Z,21.20
2022-08-26T01:38:02.308Z,21.20
2022-08-26T01:40:33.998Z,21.20
2022-08-26T01:43:02.248Z,21.20
2022-08-26T01:45:32.237Z,21.20
2022-08-26T01:48:02.798Z,21.10
2022-08-26T01:50:32.682Z,21.10
2022-08-26T01:53:05.257Z,21.10
2022-08-26T01:55:34.402Z,21.10
2022-08-26T01:58:06.255Z,21.10
2022-08-26T02:00:34.939Z,21.10
2022-08-26T02:03:17.077Z,21.10
2022-08-26T02:06:05.911Z,21.10
2022-08-26T02:08:46.679Z,21.00
2022-08-26T02:11:14.322Z,21.10
2022-08-26T02:13:49.170Z,21.10
2022-08-26T02:16:19.756Z,21.10
2022-08-26T02:18:48.406Z,21.10
2022-08-26T02:21:17.196Z,21.00
2022-08-26T02:23:44.659Z,21.00
2022-08-26T02:26:19.361Z,21.00
2022-08-26T02:29:28.564Z,21.00
2022-08-26T02:31:55.772Z,21.00
2022-08-26T02:34:31.363Z,20.90
2022-08-26T02:37:05.049Z,20.90
2022-08-26T02:39:32.573Z,20.90
2022-08-26T02:41:59.691Z,20.90
2022-08-26T02:44:27.473Z,20.90
2022-08-26T02:46:54.722Z,20.90
2022-08-26T02:49:23.757Z,20.90
2022-08-26T02:51:52.182Z,20.90
2022-08-26T02:54:23.780Z,20.80
2022-08-26T02:56:51.472Z,20.90
2022-08-26T02:59:18.957Z,20.80
2022-08-26T03:01:47.365Z,20.80
2022-08-26T03:04:14.564Z,20.80
2022-08-26T03:06:42.544Z,20.80
2022-08-26T03:09:09.914Z,20.80
2022-08-26T03:11:41.014Z,20.70
2022-08-26T03:14:08.002Z,20.70
2022-08-26T03:16:36.508Z,20.60
2022-08-26T03:19:06.109Z,20.70
2022-08-26T03:21:34.195Z,20.60
2022-08-26T03:24:03.631Z,20.60
2022-08-26T03:26:31.148Z,20.60
2022-08-26T03:29:16.711Z,20.60
2022-08-26T03:31:43.918Z,20.60
2022-08-26T03:34:14.363Z,20.60
2022-08-26T03:36:41.890Z,20.60
2022-08-26T03:39:10.311Z,20.60
2022-08-26T03:41:38.031Z,20.60
2022-08-26T03:44:06.758Z,20.60
2022-08-26T03:46:33.773Z,20.60
2022-08-26T03:49:02.292Z,20.60
2022-08-26T03:51:29.684Z,20.60
2022-08-26T03:53:59.059Z,20.50
2022-08-26T03:56:26.557Z,20.60
2022-08-26T03:58:54.155Z,20.60
2022-08-26T04:01:21.705Z,20.60
2022-08-26T04:03:59.971Z,20.50
2022-08-26T04:06:34.237Z,20.60
2022-08-26T04:09:05.361Z,20.50
2022-08-26T04:11:34.250Z,20.60
2022-08-26T04:14:05.635Z,20.50
2022-08-26T04:16:33.116Z,20.50
2022-08-26T04:19:00.284Z,20.50
2022-08-26T04:21:28.805Z,20.50
2022-08-26T04:23:56.482Z,20.60
2022-08-26T04:26:25.763Z,20.60
2022-08-26T04:28:55.730Z,20.60
2022-08-26T04:31:22.833Z,20.50
2022-08-26T04:33:50.820Z,20.60
2022-08-26T04:36:20.163Z,20.60
2022-08-26T04:38:47.860Z,20.50
2022-08-26T04:41:17.024Z,20.50
2022-08-26T04:43:46.471Z,20.50
2022-08-26T04:46:18.557Z,20.50
2022-08-26T04:48:46.091Z,20.50
2022-08-26T04:51:13.300Z,20.50
2022-08-26T04:53:40.307Z,20.50
2022-08-26T04:56:08.599Z,20.50
2022-08-26T04:58:37.151Z,20.40
2022-08-26T05:01:04.872Z,20.50
2022-08-26T05:03:31.843Z,20.40
2022-08-26T05:05:59.048Z,20.50
2022-08-26T05:08:26.271Z,20.40
2022-08-26T05:10:56.267Z,20.50
2022-08-26T05:13:26.562Z,20.50
2022-08-26T05:15:54.552Z,20.50
2022-08-26T05:18:27.498Z,20.50
2022-08-26T05:20:54.939Z,20.50
2022-08-26T05:23:23.638Z,20.50
2022-08-26T05:25:57.069Z,20.50
2022-08-26T05:28:28.403Z,20.50
2022-08-26T05:30:56.186Z,20.40
2022-08-26T05:33:24.186Z,20.40
2022-08-26T05:35:51.639Z,20.40
2022-08-26T05:38:21.664Z,20.40
2022-08-26T05:40:52.699Z,20.40
2022-08-26T05:43:21.187Z,20.40
2022-08-26T05:45:50.452Z,20.40
2022-08-26T05:48:22.860Z,20.40
2022-08-26T05:50:53.127Z,20.40
2022-08-26T05:53:22.685Z,20.40
2022-08-26T05:55:54.747Z,20.50
2022-08-26T05:58:23.602Z,20.40
2022-08-26T06:01:04.526Z,20.40
2022-08-26T06:03:33.890Z,20.40
2022-08-26T06:06:06.445Z,20.40
2022-08-26T06:08:34.682Z,20.40
2022-08-26T06:11:04.479Z,20.40
2022-08-26T06:13:32.947Z,20.40
2022-08-26T06:16:09.756Z,20.50
2022-08-26T06:18:41.815Z,20.40
2022-08-26T06:21:17.418Z,20.40
2022-08-26T06:24:04.410Z,20.50
2022-08-26T06:26:32.489Z,20.50
2022-08-26T06:29:00.274Z,20.40
2022-08-26T06:31:28.992Z,20.40
2022-08-26T06:33:56.543Z,20.50
2022-08-26T06:36:27.222Z,20.50
2022-08-26T06:38:56.280Z,20.50
2022-08-26T06:41:24.215Z,20.50
2022-08-26T06:43:52.403Z,20.50
2022-08-26T06:46:21.706Z,20.50
2022-08-26T06:48:48.962Z,20.50
2022-08-26T06:51:19.003Z,20.50
2022-08-26T06:53:52.107Z,20.60
2022-08-26T06:56:22.213Z,20.60
2022-08-26T06:58:49.776Z,20.60
2022-08-26T07:01:20.830Z,20.60
2022-08-26T07:03:50.578Z,20.60
2022-08-26T07:06:19.500Z,20.60
2022-08-26T07:08:51.175Z,20.60
2022-08-26T07:11:19.518Z,20.60
2022-08-26T07:13:47.743Z,20.70
2022-08-26T07:16:17.548Z,20.60
2022-08-26T07:18:46.002Z,20.70
2022-08-26T07:21:15.394Z,20.70
2022-08-26T07:23:45.265Z,20.70
2022-08-26T07:26:17.680Z,20.60
2022-08-26T07:28:46.651Z,20.70
2022-08-26T07:31:22.783Z,20.70
2022-08-26T07:33:50.419Z,20.80
2022-08-26T07:36:19.091Z,20.80
2022-08-26T07:38:48.131Z,20.80
2022-08-26T07:41:17.015Z,20.90
2022-08-26T07:43:44.423Z,20.90
2022-08-26T07:46:18.450Z,20.90
2022-08-26T07:48:49.213Z,20.90
2022-08-26T07:51:18.554Z,20.90
2022-08-26T07:53:48.058Z,21.00
2022-08-26T07:56:20.072Z,21.00
2022-08-26T07:58:51.284Z,21.10
2022-08-26T08:01:20.758Z,21.20
2022-08-26T08:03:51.363Z,21.20
2022-08-26T08:06:19.618Z,21.30
2022-08-26T08:08:46.696Z,21.30
2022-08-26T08:11:15.100Z,21.40
2022-08-26T08:13:42.005Z,21.40
2022-08-26T08:16:12.785Z,21.40
2022-08-26T08:18:40.477Z,21.50
2022-08-26T08:21:23.554Z,21.50
2022-08-26T08:23:55.774Z,21.70
2022-08-26T08:26:24.622Z,21.80
2022-08-26T08:28:54.738Z,21.90
2022-08-26T08:31:56.029Z,21.90
2022-08-26T08:34:15.326Z,22.10
2022-08-26T08:36:42.371Z,22.20
2022-08-26T08:39:09.728Z,22.30
2022-08-26T08:42:00.365Z,22.40
2022-08-26T08:47:06.170Z,22.60
2022-08-26T08:49:34.549Z,22.70
2022-08-26T08:52:29.576Z,22.80
2022-08-26T08:54:57.197Z,22.90
2022-08-26T08:57:56.492Z,23.00
2022-08-26T09:00:39.805Z,23.10
2022-08-26T09:03:25.975Z,23.20
2022-08-26T09:05:55.534Z,23.30
2022-08-26T09:08:28.431Z,23.40
2022-08-26T09:11:00.458Z,23.40
2022-08-26T09:13:27.958Z,23.40
2022-08-26T09:16:23.955Z,23.50
2022-08-26T09:19:14.491Z,23.40
2022-08-26T09:21:41.778Z,23.50
2022-08-26T09:24:11.083Z,23.50
2022-08-26T09:26:43.586Z,23.60
2022-08-26T09:29:23.661Z,23.70
2022-08-26T09:31:51.969Z,23.80
2022-08-26T09:34:24.983Z,23.90
2022-08-26T09:36:57.626Z,24.10
2022-08-26T09:39:27.586Z,24.20
2022-08-26T09:42:22.531Z,24.30
2022-08-26T09:45:06.550Z,24.40
2022-08-26T09:47:39.397Z,24.60
2022-08-26T09:50:33.308Z,24.70
2022-08-26T09:53:28.747Z,24.80
2022-08-26T09:56:15.741Z,24.80
2022-08-26T09:58:47.123Z,24.90
2022-08-26T10:01:42.782Z,24.90
2022-08-26T10:04:14.166Z,24.90
2022-08-26T10:06:56.982Z,24.90
2022-08-26T10:09:25.951Z,24.90
2022-08-26T10:12:02.230Z,25.00
2022-08-26T10:14:33.787Z,25.10
2022-08-26T10:17:28.193Z,25.30
2022-08-26T10:20:04.231Z,25.30
2022-08-26T10:22:57.849Z,25.40
2022-08-26T10:25:33.660Z,25.40
2022-08-26T10:28:31.318Z,25.40
2022-08-26T10:31:13.129Z,25.30
2022-08-26T10:33:41.859Z,25.30
2022-08-26T10:36:42.877Z,25.30
2022-08-26T10:39:36.526Z,25.30
2022-08-26T10:42:21.973Z,25.40
2022-08-26T10:44:52.794Z,25.50
2022-08-26T10:47:26.034Z,25.60
2022-08-26T10:49:58.736Z,25.60
2022-08-26T10:52:48.866Z,25.80
2022-08-26T10:55:34.957Z,25.90
2022-08-26T10:58:09.117Z,26.00
2022-08-26T11:01:02.391Z,26.20
2022-08-26T11:03:58.044Z,26.30
2022-08-26T11:06:28.829Z,26.50
2022-08-26T11:09:01.720Z,26.50
2022-08-26T11:11:45.405Z,26.50
2022-08-26T11:14:28.992Z,26.50
2022-08-26T11:16:58.924Z,26.50
2022-08-26T11:19:59.354Z,26.40
2022-08-26T11:22:36.300Z,26.40
2022-08-26T11:25:06.905Z,26.30
2022-08-26T11:27:36.311Z,26.30
2022-08-26T11:30:29.027Z,26.30
2022-08-26T11:33:00.067Z,26.20
2022-08-26T11:35:27.021Z,26.10
2022-08-26T11:38:02.030Z,26.10
2022-08-26T11:40:34.568Z,26.10
2022-08-26T11:43:26.138Z,26.20
2022-08-26T11:46:10.656Z,26.30
2022-08-26T11:48:44.650Z,26.40
2022-08-26T11:51:23.446Z,26.60
2022-08-26T11:53:51.186Z,26.80
2022-08-26T11:56:28.744Z,26.90
2022-08-26T11:59:00.770Z,26.90
2022-08-26T12:01:35.727Z,27.00
2022-08-26T12:04:05.867Z,27.00
2022-08-26T12:06:43.457Z,27.00
2022-08-26T12:09:21.000Z,27.00
2022-08-26T12:11:47.979Z,27.00
2022-08-26T12:14:17.963Z,27.00
2022-08-26T12:16:45.651Z,27.00
2022-08-26T12:19:32.779Z,27.00
2022-08-26T12:22:21.035Z,27.00
2022-08-26T12:24:55.522Z,27.00
2022-08-26T12:27:25.671Z,27.10
2022-08-26T12:30:03.927Z,27.10
2022-08-26T12:32:35.499Z,27.10
2022-08-26T12:37:41.201Z,27.00
2022-08-26T12:40:45.693Z,27.10
2022-08-26T12:43:17.221Z,27.00
2022-08-26T12:45:59.895Z,27.00
2022-08-26T12:48:31.866Z,27.00
2022-08-26T12:51:00.111Z,27.00
2022-08-26T12:53:33.219Z,27.00
2022-08-26T12:56:03.509Z,27.10
2022-08-26T12:58:40.283Z,27.10
2022-08-26T13:01:08.359Z,27.10
2022-08-26T13:03:35.490Z,27.10
2022-08-26T13:06:16.634Z,27.10
2022-08-26T13:09:17.998Z,27.10
2022-08-26T13:11:45.253Z,27.20
2022-08-26T13:14:18.316Z,27.30
2022-08-26T13:16:52.908Z,27.40
2022-08-26T13:19:22.440Z,27.50
2022-08-26T13:21:55.353Z,27.70
2022-08-26T13:24:22.305Z,27.80
2022-08-26T13:26:50.295Z,27.90
2022-08-26T13:29:18.540Z,27.90
2022-08-26T13:31:46.588Z,28.10
2022-08-26T13:34:20.906Z,28.20
2022-08-26T13:36:49.614Z,28.30
2022-08-26T13:39:17.404Z,28.40
2022-08-26T13:41:44.501Z,28.60
2022-08-26T13:44:12.138Z,28.60
2022-08-26T13:46:39.629Z,28.60
2022-08-26T13:49:06.720Z,28.50
2022-08-26T13:51:33.876Z,28.50
2022-08-26T13:54:00.824Z,28.40
2022-08-26T13:56:29.899Z,28.40
2022-08-26T13:58:58.090Z,28.40
2022-08-26T14:01:26.505Z,28.30
2022-08-26T14:03:53.563Z,28.30
2022-08-26T14:06:21.256Z,28.30
2022-08-26T14:08:49.430Z,28.30
2022-08-26T14:11:16.619Z,28.30
2022-08-26T14:13:43.603Z,28.30
2022-08-26T14:16:16.025Z,28.30
2022-08-26T14:18:47.334Z,28.30
2022-08-26T14:21:17.232Z,28.30
2022-08-26T14:23:44.252Z,28.30
2022-08-26T14:26:14.336Z,28.30
2022-08-26T14:29:00.273Z,28.30
2022-08-26T14:31:33.344Z,28.20
2022-08-26T14:34:04.859Z,28.20
2022-08-26T14:36:35.372Z,28.20
2022-08-26T14:39:10.903Z,28.20
2022-08-26T14:41:55.454Z,28.30
2022-08-26T14:44:29.490Z,28.30
2022-08-26T14:46:56.883Z,28.40
2022-08-26T14:49:25.187Z,28.40
2022-08-26T14:51:52.211Z,28.40
2022-08-26T14:54:20.649Z,28.30
2022-08-26T14:56:56.768Z,28.40
2022-08-26T14:59:28.231Z,28.30
2022-08-26T15:01:55.741Z,28.30
2022-08-26T15:04:23.504Z,28.20
2022-08-26T15:06:51.479Z,28.10
2022-08-26T15:09:18.431Z,28.00
2022-08-26T15:11:46.394Z,27.90
2022-08-26T15:14:19.446Z,27.80
2022-08-26T15:16:48.251Z,27.60
2022-08-26T15:19:15.996Z,27.50
2022-08-26T15:21:43.454Z,27.40
2022-08-26T15:24:10.776Z,27.30
2022-08-26T15:26:37.731Z,27.30
2022-08-26T15:29:05.558Z,27.20
2022-08-26T15:31:33.891Z,27.20
2022-08-26T15:34:06.615Z,27.10
2022-08-26T15:36:37.125Z,27.00
2022-08-26T15:39:06.468Z,26.90
2022-08-26T15:41:34.978Z,26.80
2022-08-26T15:44:04.099Z,26.80
2022-08-26T15:46:32.094Z,26.60
2022-08-26T15:48:59.452Z,26.50
2022-08-26T15:51:30.338Z,26.40
2022-08-26T15:53:57.520Z,26.40
2022-08-26T15:56:32.531Z,26.30
2022-08-26T15:59:02.106Z,26.30
2022-08-26T16:01:31.726Z,26.20
2022-08-26T16:03:59.607Z,26.20
2022-08-26T16:06:30.256Z,26.20
2022-08-26T16:08:57.964Z,26.20
2022-08-26T16:11:26.613Z,26.10
2022-08-26T16:13:53.579Z,26.10
2022-08-26T16:16:21.545Z,26.10
2022-08-26T16:18:49.039Z,26.10
2022-08-26T16:21:17.791Z,26.10
2022-08-26T16:23:45.552Z,26.00
2022-08-26T16:26:15.933Z,25.90
2022-08-26T16:28:43.635Z,25.90
2022-08-26T16:31:11.666Z,25.90
2022-08-26T16:33:38.983Z,25.80
2022-08-26T16:36:07.342Z,25.70
2022-08-26T16:38:34.793Z,25.60
2022-08-26T16:41:02.101Z,25.60
2022-08-26T16:43:29.159Z,25.50
2022-08-26T16:45:57.678Z,25.50
2022-08-26T16:48:24.899Z,25.40
2022-08-26T16:50:55.359Z,25.40
2022-08-26T16:53:23.223Z,25.30
2022-08-26T16:55:50.970Z,25.30
2022-08-26T16:58:21.983Z,25.20
2022-08-26T17:00:49.751Z,25.10
2022-08-26T17:03:17.119Z,25.10
2022-08-26T17:05:44.574Z,25.00
2022-08-26T17:08:14.513Z,25.00
2022-08-26T17:10:51.778Z,24.90
2022-08-26T17:13:34.772Z,24.90
2022-08-26T17:16:04.883Z,24.80
2022-08-26T17:18:33.405Z,24.80
2022-08-26T17:21:03.073Z,24.70
2022-08-26T17:23:30.616Z,24.60
2022-08-26T17:25:57.608Z,24.60
2022-08-26T17:28:24.576Z,24.50
2022-08-26T17:30:51.622Z,24.40
2022-08-26T17:33:24.491Z,24.40
2022-08-26T17:35:53.003Z,24.40
2022-08-26T17:38:21.182Z,24.30
2022-08-26T17:40:49.231Z,24.20
2022-08-26T17:43:16.736Z,24.10
2022-08-26T17:45:44.086Z,24.10
2022-08-26T17:48:11.536Z,24.00
2022-08-26T17:50:41.373Z,23.90
2022-08-26T17:53:12.588Z,23.90
2022-08-26T17:55:50.086Z,23.80
2022-08-26T17:58:20.095Z,23.80
2022-08-26T18:00:51.339Z,23.60
2022-08-26T18:03:19.185Z,23.60
2022-08-26T18:05:52.283Z,23.50
2022-08-26T18:08:20.455Z,23.40
2022-08-26T18:10:47.834Z,23.40
2022-08-26T18:13:15.007Z,23.40
2022-08-26T18:15:43.586Z,23.30
2022-08-26T18:18:11.075Z,23.20
2022-08-26T18:20:40.069Z,23.10
2022-08-26T18:23:07.625Z,23.10
2022-08-26T18:25:34.775Z,23.00
2022-08-26T18:28:01.926Z,22.90
2022-08-26T18:30:28.818Z,22.90
2022-08-26T18:32:55.807Z,22.80
2022-08-26T18:35:22.838Z,22.80
2022-08-26T18:37:49.772Z,22.70
2022-08-26T18:40:16.698Z,22.60
2022-08-26T18:42:44.023Z,22.60
2022-08-26T18:45:11.118Z,22.50
2022-08-26T18:47:43.546Z,22.50
2022-08-26T18:50:11.101Z,22.40
2022-08-26T18:52:39.118Z,22.40
2022-08-26T18:55:06.440Z,22.40
2022-08-26T18:57:33.419Z,22.30
2022-08-26T19:00:01.020Z,22.30
2022-08-26T19:02:28.099Z,22.20
2022-08-26T19:04:57.557Z,22.10
2022-08-26T19:07:24.675Z,22.10
2022-08-26T19:09:54.015Z,22.10
2022-08-26T19:12:21.573Z,22.00
2022-08-26T19:14:48.503Z,21.90
2022-08-26T19:17:15.681Z,21.90
2022-08-26T19:19:42.603Z,21.90
2022-08-26T19:22:09.677Z,21.80
2022-08-26T19:24:36.674Z,21.80
2022-08-26T19:27:04.030Z,21.70
2022-08-26T19:29:35.719Z,21.70
2022-08-26T19:32:03.926Z,21.60
2022-08-26T19:34:31.489Z,21.60
2022-08-26T19:36:58.513Z,21.50
2022-08-26T19:39:26.331Z,21.50
2022-08-26T19:41:53.520Z,21.40
2022-08-26T19:44:41.018Z,21.40
2022-08-26T19:47:10.059Z,21.40
2022-08-26T19:49:37.675Z,21.30
2022-08-26T19:52:05.709Z,21.30
2022-08-26T19:54:32.901Z,21.20
2022-08-26T19:57:00.467Z,21.20
2022-08-26T19:59:27.547Z,21.10
2022-08-26T20:02:01.454Z,21.00
2022-08-26T20:04:32.751Z,21.00
2022-08-26T20:07:01.273Z,20.90
2022-08-26T20:09:34.034Z,20.90
2022-08-26T20:12:02.577Z,20.90
2022-08-26T20:14:29.959Z,20.80
2022-08-26T20:16:56.966Z,20.80
2022-08-26T20:19:42.670Z,20.80
2022-08-26T20:22:10.106Z,20.70
2022-08-26T20:24:37.954Z,20.70
2022-08-26T20:27:07.974Z,20.60
2022-08-26T20:29:36.188Z,20.60
2022-08-26T20:32:06.110Z,20.50
2022-08-26T20:34:34.308Z,20.50
2022-08-26T20:37:01.697Z,20.50
2022-08-26T20:39:29.716Z,20.40
2022-08-26T20:41:58.112Z,20.40
2022-08-26T20:44:25.862Z,20.40
2022-08-26T20:46:52.898Z,20.40
2022-08-26T20:49:19.926Z,20.30
2022-08-26T20:51:51.550Z,20.30
2022-08-26T20:54:21.022Z,20.20
2022-08-26T20:56:50.385Z,20.20
2022-08-26T20:59:18.811Z,20.10
2022-08-26T21:01:46.532Z,20.10
2022-08-26T21:04:22.941Z,20.10
2022-08-26T21:06:53.230Z,20.00
2022-08-26T21:09:23.106Z,20.00
2022-08-26T21:11:50.803Z,19.90
2022-08-26T21:14:18.938Z,19.90
2022-08-26T21:16:46.976Z,19.90
2022-08-26T21:19:15.986Z,19.80
2022-08-26T21:21:44.560Z,19.80
2022-08-26T21:24:12.205Z,19.70
2022-08-26T21:26:39.936Z,19.60
2022-08-26T21:29:09.611Z,19.60
2022-08-26T21:31:41.015Z,19.60
2022-08-26T21:34:12.034Z,19.50
2022-08-26T21:36:38.958Z,19.50
2022-08-26T21:39:11.242Z,19.40
2022-08-26T21:41:39.575Z,19.40
2022-08-26T21:44:06.709Z,19.30
2022-08-26T21:46:37.230Z,19.30
2022-08-26T21:49:07.994Z,19.30
2022-08-26T21:51:37.852Z,19.20
2022-08-26T21:54:10.725Z,19.20
2022-08-26T21:56:40.697Z,19.10
2022-08-26T21:59:08.696Z,19.10
2022-08-26T22:01:37.685Z,19.10
2022-08-26T22:04:07.657Z,19.00
2022-08-26T22:06:41.839Z,18.90
2022-08-26T22:09:09.447Z,18.90
2022-08-26T22:11:36.962Z,18.80
2022-08-26T22:14:04.053Z,18.80
2022-08-26T22:16:31.000Z,18.80
2022-08-26T22:18:58.039Z,18.70
2022-08-26T22:21:28.006Z,18.70
2022-08-26T22:23:58.250Z,18.70
2022-08-26T22:26:29.181Z,18.60
2022-08-26T22:28:58.862Z,18.60
2022-08-26T22:31:38.048Z,18.50
2022-08-26T22:34:08.599Z,18.50
2022-08-26T22:36:42.662Z,18.40
2022-08-26T22:39:11.979Z,18.50
2022-08-26T22:41:39.178Z,18.40
2022-08-26T22:44:06.311Z,18.40
2022-08-26T22:46:34.881Z,18.40
2022-08-26T22:49:04.428Z,18.40
2022-08-26T22:51:31.962Z,18.40
2022-08-26T22:53:59.191Z,18.30
2022-08-26T22:56:26.260Z,18.30
2022-08-26T22:58:53.249Z,18.20
2022-08-26T23:01:21.031Z,18.10
2022-08-26T23:03:48.239Z,18.10
2022-08-26T23:06:15.252Z,18.10
2022-08-26T23:08:45.205Z,18.00
2022-08-26T23:11:14.883Z,18.00
2022-08-26T23:13:42.042Z,18.00
2022-08-26T23:16:11.450Z,18.00
2022-08-26T23:18:39.614Z,17.90
2022-08-26T23:21:06.950Z,17.90
2022-08-26T23:23:34.198Z,17.90
2022-08-26T23:26:04.456Z,17.90
2022-08-26T23:28:33.218Z,17.80
2022-08-26T23:31:00.187Z,17.70
2022-08-26T23:33:47.138Z,17.70
2022-08-26T23:36:17.571Z,17.70
2022-08-26T23:38:52.431Z,17.60
2022-08-26T23:41:22.426Z,17.60
2022-08-26T23:43:50.136Z,17.60
2022-08-26T23:46:17.695Z,17.50
2022-08-26T23:48:44.607Z,17.50
2022-08-26T23:51:30.123Z,17.50
2022-08-26T23:53:57.966Z,17.50
2022-08-26T23:56:25.070Z,17.40
2022-08-26T23:58:54.315Z,17.40
